createdAt,value
2019-02-26T00:00:01.111Z,1.50
2019-02-26T00:05:03.283Z,1.40
2019-02-26T00:10:02.578Z,1.50
2019-02-26T00:15:02.569Z,1.50
2019-02-26T00:20:01.041Z,1.60
2019-02-26T00:25:03.839Z,1.40
2019-02-26T00:30:01.049Z,1.50
2019-02-26T00:35:02.043Z,1.70
2019-02-26T00:40:01.105Z,1.60
2019-02-26T00:45:03.329Z,1.40
2019-02-26T00:50:01.097Z,1.40
2019-02-26T00:55:02.987Z,1.70
2019-02-26T01:00:02.988Z,1.70
2019-02-26T01:05:01.083Z,1.50
2019-02-26T01:10:01.091Z,1.40
2019-02-26T01:15:03.158Z,1.60
2019-02-26T01:20:03.493Z,1.60
2019-02-26T01:25:01.076Z,1.40
2019-02-26T01:30:03.289Z,1.60
2019-02-26T01:35:03.301Z,1.50
2019-02-26T01:40:01.068Z,1.40
2019-02-26T01:45:01.058Z,1.40
2019-02-26T01:50:01.061Z,1.60
2019-02-26T01:55:02.770Z,1.50
2019-02-26T02:00:01.078Z,1.40
2019-02-26T02:05:03.191Z,1.50
2019-02-26T02:10:03.100Z,1.50
2019-02-26T02:15:01.115Z,1.60
2019-02-26T02:20:03.336Z,1.60
2019-02-26T02:25:01.116Z,1.60
2019-02-26T02:30:01.112Z,1.50
2019-02-26T02:35:03.803Z,1.60
2019-02-26T02:40:01.109Z,1.40
2019-02-26T02:45:01.081Z,1.60
2019-02-26T02:50:03.058Z,1.40
2019-02-26T02:55:01.101Z,1.50
2019-02-26T03:00:03.001Z,1.50
2019-02-26T03:05:01.084Z,1.50
2019-02-26T03:10:03.920Z,1.50
2019-02-26T03:15:02.363Z,1.60
2019-02-26T03:20:02.733Z,1.50
2019-02-26T03:25:02.410Z,1.50
2019-02-26T03:30:02.045Z,1.40
2019-02-26T03:35:04.417Z,1.40
2019-02-26T03:40:03.668Z,1.30
2019-02-26T03:45:02.927Z,1.50
2019-02-26T03:50:01.084Z,1.50
2019-02-26T03:55:03.501Z,1.50
2019-02-26T04:00:05.710Z,1.50
2019-02-26T04:05:03.009Z,1.50
2019-02-26T04:10:01.091Z,1.50
2019-02-26T04:15:01.082Z,1.50
2019-02-26T04:20:05.093Z,1.50
2019-02-26T04:25:04.785Z,1.40
2019-02-26T04:30:01.112Z,1.40
2019-02-26T04:35:02.866Z,1.50
2019-02-26T04:40:02.319Z,1.40
2019-02-26T04:45:04.204Z,1.40
2019-02-26T04:50:03.908Z,1.50
2019-02-26T04:55:01.052Z,1.40
2019-02-26T05:00:02.435Z,1.50
2019-02-26T05:05:01.094Z,1.30
2019-02-26T05:10:02.271Z,1.40
2019-02-26T05:15:01.101Z,1.50
2019-02-26T05:20:03.546Z,1.30
2019-02-26T05:25:01.102Z,1.40
2019-02-26T05:30:01.097Z,1.40
2019-02-26T05:35:01.091Z,1.40
2019-02-26T05:40:01.118Z,1.40
2019-02-26T05:45:03.859Z,1.30
2019-02-26T05:50:02.692Z,1.40
2019-02-26T05:55:01.099Z,1.40
2019-02-26T06:00:01.209Z,1.40
2019-02-26T06:05:01.092Z,1.30
2019-02-26T06:10:01.056Z,1.30
2019-02-26T06:15:04.839Z,1.10
2019-02-26T06:20:02.623Z,1.30
2019-02-26T06:25:04.080Z,1.40
2019-02-26T06:30:05.971Z,1.30
2019-02-26T06:35:01.102Z,1.50
2019-02-26T06:40:03.118Z,1.20
2019-02-26T06:45:03.406Z,1.30
2019-02-26T06:50:02.857Z,1.20
2019-02-26T06:55:03.576Z,1.20
2019-02-26T07:00:02.257Z,1.30
2019-02-26T07:05:01.110Z,1.30
2019-02-26T07:10:01.117Z,1.30
2019-02-26T07:15:01.132Z,1.10
2019-02-26T07:20:03.147Z,1.20
2019-02-26T07:25:01.049Z,1.30
2019-02-26T07:30:01.095Z,1.20
2019-02-26T07:35:01.475Z,1.20
2019-02-26T07:40:03.242Z,1.20
2019-02-26T07:45:01.032Z,1.10
2019-02-26T07:50:03.988Z,1.20
2019-02-26T07:55:01.098Z,1.00
2019-02-26T08:00:01.092Z,1.20
2019-02-26T08:05:01.046Z,1.20
2019-02-26T08:10:01.086Z,1.20
2019-02-26T08:15:03.037Z,1.20
2019-02-26T08:20:01.875Z,1.20
2019-02-26T08:25:01.603Z,1.20
2019-02-26T08:30:01.352Z,1.10
2019-02-26T08:35:01.094Z,1.20
2019-02-26T08:40:01.118Z,1.20
2019-02-26T08:45:01.048Z,1.10
2019-02-26T08:50:01.915Z,1.10
2019-02-26T08:55:01.106Z,1.20
2019-02-26T09:00:01.118Z,1.10
2019-02-26T09:05:01.608Z,1.20
2019-02-26T09:10:01.117Z,1.20
2019-02-26T09:15:01.475Z,1.10
2019-02-26T09:20:09.336Z,1.20
2019-02-26T09:25:02.197Z,1.30
2019-02-26T09:30:03.274Z,1.20
2019-02-26T09:35:04.003Z,1.20
2019-02-26T09:40:02.844Z,1.00
2019-02-26T09:45:01.059Z,1.10
2019-02-26T09:50:01.079Z,1.10
2019-02-26T09:55:01.039Z,1.00
2019-02-26T10:00:03.305Z,1.10
2019-02-26T10:05:01.093Z,1.20
2019-02-26T10:10:03.429Z,1.20
2019-02-26T10:15:02.380Z,1.30
2019-02-26T10:20:01.746Z,1.10
2019-02-26T10:25:01.045Z,1.10
2019-02-26T10:30:02.833Z,1.20
2019-02-26T10:35:01.104Z,1.30
2019-02-26T10:40:01.105Z,1.20
2019-02-26T10:45:01.101Z,1.20
2019-02-26T10:50:01.063Z,1.10
2019-02-26T10:55:01.133Z,1.20
2019-02-26T11:00:02.510Z,1.20
2019-02-26T11:05:01.139Z,0.90
2019-02-26T11:10:01.101Z,1.20
2019-02-26T11:15:02.321Z,1.20
2019-02-26T11:20:01.785Z,1.00
2019-02-26T11:25:01.442Z,1.10
2019-02-26T11:30:02.095Z,1.00
2019-02-26T11:35:02.427Z,1.10
2019-02-26T11:40:02.867Z,1.10
2019-02-26T11:45:01.654Z,1.10
2019-02-26T11:50:02.775Z,1.00
2019-02-26T11:55:05.325Z,1.10
2019-02-26T12:00:01.991Z,1.20
2019-02-26T12:05:02.999Z,1.10
2019-02-26T12:10:07.263Z,1.10
2019-02-26T12:15:03.510Z,1.10
2019-02-26T12:20:01.083Z,1.10
2019-02-26T12:25:02.720Z,1.10
2019-02-26T12:30:01.103Z,1.10
2019-02-26T12:35:03.305Z,1.20
2019-02-26T12:40:01.076Z,0.90
2019-02-26T12:45:03.969Z,1.00
2019-02-26T12:50:01.690Z,1.10
2019-02-26T12:55:04.378Z,0.90
2019-02-26T13:00:01.109Z,1.10
2019-02-26T13:05:01.043Z,1.00
2019-02-26T13:10:03.619Z,1.10
2019-02-26T13:15:03.222Z,1.00
2019-02-26T13:20:05.071Z,1.00
2019-02-26T13:25:03.572Z,1.00
2019-02-26T13:30:01.110Z,1.00
2019-02-26T13:35:05.673Z,0.90
2019-02-26T13:40:01.109Z,0.90
2019-02-26T13:45:01.044Z,1.00
2019-02-26T13:50:01.108Z,0.80
2019-02-26T13:55:01.117Z,1.00
2019-02-26T14:00:01.099Z,1.00
2019-02-26T14:05:01.217Z,0.90
2019-02-26T14:10:01.062Z,1.00
2019-02-26T14:15:01.064Z,1.00
2019-02-26T14:20:01.252Z,0.80
2019-02-26T14:25:01.115Z,1.00
2019-02-26T14:30:01.839Z,1.10
2019-02-26T14:35:01.065Z,1.20
2019-02-26T14:40:01.103Z,1.00
2019-02-26T14:45:01.109Z,1.10
2019-02-26T14:50:01.521Z,1.00
2019-02-26T14:55:01.119Z,0.90
2019-02-26T15:00:01.115Z,0.80
2019-02-26T15:05:01.113Z,0.90
2019-02-26T15:10:01.106Z,1.00
2019-02-26T15:15:01.669Z,0.90
2019-02-26T15:20:01.116Z,1.00
2019-02-26T15:25:01.100Z,1.00
2019-02-26T15:30:01.105Z,0.80
2019-02-26T15:35:01.107Z,0.90
2019-02-26T15:40:01.100Z,0.90
2019-02-26T15:45:01.125Z,1.20
2019-02-26T15:50:01.119Z,0.90
2019-02-26T15:55:01.116Z,0.90
2019-02-26T16:00:01.100Z,0.90
2019-02-26T16:05:01.111Z,1.00
2019-02-26T16:10:01.637Z,1.00
2019-02-26T16:15:01.110Z,0.90
2019-02-26T16:20:01.094Z,0.90
2019-02-26T16:25:01.105Z,1.00
2019-02-26T16:30:01.073Z,0.90
2019-02-26T16:35:01.101Z,0.90
2019-02-26T16:40:01.069Z,0.70
2019-02-26T16:45:01.329Z,1.10
2019-02-26T16:50:11.924Z,1.00
2019-02-26T16:55:01.089Z,0.90
2019-02-26T17:00:01.122Z,0.80
2019-02-26T17:05:01.626Z,0.90
2019-02-26T17:10:01.089Z,1.00
2019-02-26T17:15:01.579Z,1.10
2019-02-26T17:20:01.137Z,0.90
2019-02-26T17:25:01.110Z,0.90
2019-02-26T17:30:01.106Z,0.90
2019-02-26T17:35:01.106Z,0.80
2019-02-26T17:40:03.317Z,0.80
2019-02-26T17:45:01.126Z,0.80
2019-02-26T17:50:01.122Z,0.80
2019-02-26T17:55:01.125Z,0.90
2019-02-26T18:00:01.106Z,0.70
2019-02-26T18:05:01.730Z,0.90
2019-02-26T18:10:01.102Z,0.90
2019-02-26T18:15:01.426Z,0.90
2019-02-26T18:20:01.068Z,0.80
2019-02-26T18:25:01.154Z,0.70
2019-02-26T18:30:01.098Z,0.80
2019-02-26T18:35:01.634Z,1.00
2019-02-26T18:40:01.092Z,0.90
2019-02-26T18:45:01.104Z,0.70
2019-02-26T18:50:01.105Z,0.80
2019-02-26T18:55:01.087Z,0.80
2019-02-26T19:00:01.079Z,0.90
2019-02-26T19:05:01.067Z,0.80
2019-02-26T19:10:01.075Z,0.90
2019-02-26T19:15:01.076Z,0.80
2019-02-26T19:20:01.055Z,0.90
2019-02-26T19:25:01.090Z,0.70
2019-02-26T19:30:04.163Z,0.70
2019-02-26T19:35:01.844Z,0.80
2019-02-26T19:40:01.080Z,0.90
2019-02-26T19:45:01.135Z,0.80
2019-02-26T19:50:01.051Z,0.80
2019-02-26T19:55:01.069Z,0.80
2019-02-26T20:00:01.162Z,0.80
2019-02-26T20:05:01.097Z,0.80
2019-02-26T20:10:01.098Z,0.80
2019-02-26T20:15:01.089Z,0.90
2019-02-26T20:20:04.957Z,0.90
2019-02-26T20:25:01.110Z,0.80
2019-02-26T20:30:01.080Z,0.80
2019-02-26T20:35:01.114Z,0.90
2019-02-26T20:40:01.071Z,0.80
2019-02-26T20:45:01.088Z,0.70
2019-02-26T20:50:01.078Z,0.80
2019-02-26T20:55:01.080Z,0.80
2019-02-26T21:00:01.090Z,0.80
2019-02-26T21:05:01.438Z,0.70
2019-02-26T21:10:03.795Z,0.80
2019-02-26T21:15:01.094Z,0.70
2019-02-26T21:20:01.084Z,0.80
2019-02-26T21:25:01.101Z,0.90
2019-02-26T21:30:01.068Z,0.80
2019-02-26T21:35:01.057Z,0.90
2019-02-26T21:40:01.312Z,0.80
2019-02-26T21:45:01.075Z,0.70
2019-02-26T21:50:01.099Z,0.90
2019-02-26T21:55:01.510Z,0.80
2019-02-26T22:00:05.163Z,0.70
2019-02-26T22:05:05.014Z,0.80
2019-02-26T22:10:01.091Z,0.80
2019-02-26T22:15:01.091Z,0.70
2019-02-26T22:20:01.113Z,0.80
2019-02-26T22:25:09.335Z,0.80
2019-02-26T22:30:01.069Z,0.80
2019-02-26T22:35:01.107Z,0.70
2019-02-26T22:40:01.109Z,0.70
2019-02-26T22:45:01.080Z,0.70
2019-02-26T22:50:03.119Z,0.70
2019-02-26T22:55:01.096Z,0.80
2019-02-26T23:00:01.091Z,0.70
2019-02-26T23:05:01.057Z,0.60
2019-02-26T23:10:01.099Z,0.70
2019-02-26T23:15:01.101Z,0.70
2019-02-26T23:20:01.100Z,0.70
2019-02-26T23:25:01.614Z,0.70
2019-02-26T23:30:01.079Z,0.70
2019-02-26T23:35:01.094Z,0.70
2019-02-26T23:40:01.098Z,0.60
2019-02-26T23:45:01.101Z,0.60
2019-02-26T23:50:01.092Z,0.70
2019-02-26T23:55:01.096Z,0.70
